createdAt,value
2023-11-24T00:00:14.604Z,5.6
2023-11-24T00:01:15.559Z,5.7
2023-11-24T00:02:16.673Z,5.6
2023-11-24T00:03:17.564Z,5.6
2023-11-24T00:04:18.599Z,5.6
2023-11-24T00:05:19.563Z,5.6
2023-11-24T00:06:20.589Z,5.6
2023-11-24T00:07:21.573Z,5.5
2023-11-24T00:08:22.551Z,5.5
2023-11-24T00:09:23.607Z,5.5
2023-11-24T00:10:24.570Z,5.3
2023-11-24T00:11:26.630Z,5.3
2023-11-24T00:12:27.557Z,5.2
2023-11-24T00:13:28.556Z,5.2
2023-11-24T00:14:29.652Z,5.3
2023-11-24T00:15:30.608Z,5.3
2023-11-24T00:16:31.581Z,5.4
2023-11-24T00:17:32.582Z,5.5
2023-11-24T00:18:33.611Z,5.4
2023-11-24T00:19:34.601Z,5.4
2023-11-24T00:20:35.608Z,5.4
2023-11-24T00:21:36.601Z,5.4
2023-11-24T00:22:37.576Z,5.5
2023-11-24T00:23:38.562Z,5.5
2023-11-24T00:24:39.561Z,5.4
2023-11-24T00:25:40.566Z,5.4
2023-11-24T00:26:41.594Z,5.4
2023-11-24T00:27:45.324Z,5.5
2023-11-24T00:28:46.619Z,5.6
2023-11-24T00:29:47.580Z,5.5
2023-11-24T00:30:48.580Z,5.5
2023-11-24T00:31:49.667Z,5.4
2023-11-24T00:32:50.582Z,5.5
2023-11-24T00:33:52.681Z,5.5
2023-11-24T00:34:53.560Z,5.5
2023-11-24T00:35:54.604Z,5.5
2023-11-24T00:36:55.612Z,5.5
2023-11-24T00:37:56.552Z,5.5
2023-11-24T00:38:57.612Z,5.5
2023-11-24T00:39:58.614Z,5.5
2023-11-24T00:40:59.567Z,5.5
2023-11-24T00:42:00.631Z,5.5
2023-11-24T00:43:01.661Z,5.5
2023-11-24T00:44:02.555Z,5.5
2023-11-24T00:45:03.566Z,5.6
2023-11-24T00:46:04.587Z,5.6
2023-11-24T00:47:06.627Z,5.7
2023-11-24T00:48:07.585Z,5.7
2023-11-24T00:49:08.559Z,5.8
2023-11-24T00:50:09.600Z,5.8
2023-11-24T00:51:11.102Z,5.9
2023-11-24T00:52:11.635Z,5.9
2023-11-24T00:53:12.612Z,5.9
2023-11-24T00:54:13.570Z,5.9
2023-11-24T00:55:14.568Z,5.9
2023-11-24T00:56:15.577Z,6
2023-11-24T00:57:16.576Z,6
2023-11-24T00:58:17.603Z,6
2023-11-24T00:59:18.575Z,6
2023-11-24T01:00:19.601Z,6.1
2023-11-24T01:01:20.582Z,6.1
2023-11-24T01:02:21.635Z,6.2
2023-11-24T01:03:22.617Z,6.1
2023-11-24T01:04:23.675Z,6.1
2023-11-24T01:05:24.592Z,6.1
2023-11-24T01:06:25.686Z,6.1
2023-11-24T01:07:26.606Z,6.1
2023-11-24T01:09:28.622Z,6.2
2023-11-24T01:10:29.589Z,6.1
2023-11-24T01:11:30.576Z,6.1
2023-11-24T01:12:31.645Z,6.1
2023-11-24T01:13:32.571Z,6.1
2023-11-24T01:14:33.588Z,6.1
2023-11-24T01:15:34.590Z,6.1
2023-11-24T01:16:35.594Z,6.1
2023-11-24T01:17:36.741Z,6.2
2023-11-24T01:18:37.730Z,6.2
2023-11-24T01:19:38.605Z,6.1
2023-11-24T01:20:39.600Z,6
2023-11-24T01:21:40.624Z,5.9
2023-11-24T01:22:41.612Z,5.9
2023-11-24T01:23:42.619Z,5.9
2023-11-24T01:24:43.691Z,5.8
2023-11-24T01:25:44.646Z,5.8
2023-11-24T01:26:45.569Z,5.9
2023-11-24T01:27:46.625Z,6
2023-11-24T01:28:47.622Z,6
2023-11-24T01:29:48.580Z,6.1
2023-11-24T01:30:49.610Z,6
2023-11-24T01:31:50.611Z,6
2023-11-24T01:32:51.655Z,6
2023-11-24T01:33:52.612Z,6
2023-11-24T01:34:53.584Z,6
2023-11-24T01:35:54.594Z,6
2023-11-24T01:36:55.651Z,6
2023-11-24T01:37:56.596Z,6
2023-11-24T01:38:57.581Z,6
2023-11-24T01:40:01.525Z,6
2023-11-24T01:41:02.626Z,6
2023-11-24T01:42:03.613Z,6
2023-11-24T01:43:04.616Z,6.1
2023-11-24T01:44:05.616Z,6.1
2023-11-24T01:45:06.592Z,6.1
2023-11-24T01:46:07.651Z,6
2023-11-24T01:47:08.622Z,6
2023-11-24T01:48:09.588Z,6
2023-11-24T01:49:13.226Z,6
2023-11-24T01:50:11.594Z,6.1
2023-11-24T01:51:12.590Z,6.1
2023-11-24T01:52:13.619Z,6
2023-11-24T01:53:14.604Z,6.1
2023-11-24T01:54:15.616Z,6.1
2023-11-24T01:55:16.603Z,6.1
2023-11-24T01:56:17.595Z,6
2023-11-24T01:57:18.622Z,6
2023-11-24T01:58:19.619Z,6.1
2023-11-24T01:59:20.604Z,6
2023-11-24T02:00:21.783Z,6
2023-11-24T02:01:22.623Z,6
2023-11-24T02:02:23.768Z,6
2023-11-24T02:03:24.683Z,6
2023-11-24T02:04:25.629Z,5.9
2023-11-24T02:05:26.627Z,5.9
2023-11-24T02:06:27.640Z,5.9
2023-11-24T02:07:28.629Z,5.9
2023-11-24T02:08:29.593Z,5.9
2023-11-24T02:09:30.612Z,6
2023-11-24T02:10:31.617Z,6
2023-11-24T02:11:32.615Z,6
2023-11-24T02:12:33.665Z,6
2023-11-24T02:13:35.609Z,6
2023-11-24T02:14:36.607Z,6
2023-11-24T02:15:37.663Z,5.9
2023-11-24T02:16:38.657Z,5.9
2023-11-24T02:17:39.660Z,5.9
2023-11-24T02:18:40.629Z,5.9
2023-11-24T02:19:41.622Z,5.9
2023-11-24T02:20:45.209Z,5.9
2023-11-24T02:21:45.616Z,5.9
2023-11-24T02:22:46.655Z,5.8
2023-11-24T02:23:47.665Z,5.9
2023-11-24T02:24:48.653Z,5.9
2023-11-24T02:25:49.599Z,5.9
2023-11-24T02:26:50.677Z,5.9
2023-11-24T02:27:51.633Z,6
2023-11-24T02:28:55.431Z,6
2023-11-24T02:29:56.652Z,6
2023-11-24T02:30:57.710Z,6
2023-11-24T02:31:58.627Z,6.1
2023-11-24T02:32:59.681Z,6.1
2023-11-24T02:34:00.672Z,6.2
2023-11-24T02:35:01.692Z,6.2
2023-11-24T02:36:02.635Z,6.3
2023-11-24T02:37:03.738Z,6.3
2023-11-24T02:38:06.942Z,6.3
2023-11-24T02:39:07.613Z,6.3
2023-11-24T02:40:08.656Z,6.3
2023-11-24T02:41:09.611Z,6.4
2023-11-24T02:42:11.641Z,6.4
2023-11-24T02:43:12.616Z,6.4
2023-11-24T02:44:13.644Z,6.3
2023-11-24T02:45:14.619Z,6.4
2023-11-24T02:46:15.622Z,6.4
2023-11-24T02:47:16.632Z,6.5
2023-11-24T02:48:17.683Z,6.4
2023-11-24T02:49:18.666Z,6.4
2023-11-24T02:50:19.641Z,6.3
2023-11-24T02:51:20.620Z,6.3
2023-11-24T02:52:21.751Z,6.3
2023-11-24T02:53:22.695Z,6.2
2023-11-24T02:54:23.748Z,6.1
2023-11-24T02:55:24.686Z,5.9
2023-11-24T02:56:25.695Z,5.7
2023-11-24T02:57:26.652Z,5.6
2023-11-24T02:58:27.638Z,5.5
2023-11-24T02:59:28.634Z,5.5
2023-11-24T03:00:29.681Z,5.4
2023-11-24T03:01:30.731Z,5.1
2023-11-24T03:02:31.730Z,5
2023-11-24T03:03:32.650Z,4.8
2023-11-24T03:04:33.652Z,4.7
2023-11-24T03:05:34.632Z,4.6
2023-11-24T03:06:35.644Z,4.6
2023-11-24T03:07:39.526Z,4.5
2023-11-24T03:08:40.682Z,4.6
2023-11-24T03:09:41.663Z,4.6
2023-11-24T03:10:42.650Z,4.7
2023-11-24T03:11:43.677Z,4.8
2023-11-24T03:12:44.655Z,4.8
2023-11-24T03:13:45.650Z,4.8
2023-11-24T03:14:46.648Z,4.8
2023-11-24T03:15:47.719Z,4.7
2023-11-24T03:16:48.669Z,4.7
2023-11-24T03:17:49.716Z,4.7
2023-11-24T03:18:50.652Z,4.7
2023-11-24T03:19:51.644Z,4.7
2023-11-24T03:20:52.635Z,4.7
2023-11-24T03:21:53.648Z,4.7
2023-11-24T03:22:55.751Z,4.7
2023-11-24T03:23:55.673Z,4.7
2023-11-24T03:24:56.669Z,4.8
2023-11-24T03:25:58.114Z,4.8
2023-11-24T03:26:58.710Z,4.8
2023-11-24T03:27:59.713Z,4.8
2023-11-24T03:29:00.629Z,4.7
2023-11-24T03:30:01.809Z,4.6
2023-11-24T03:31:02.770Z,4.6
2023-11-24T03:32:03.709Z,4.6
2023-11-24T03:33:04.707Z,4.6
2023-11-24T03:34:05.727Z,4.6
2023-11-24T03:35:06.670Z,4.5
2023-11-24T03:36:07.655Z,4.4
2023-11-24T03:37:08.680Z,4.3
2023-11-24T03:38:09.650Z,4.3
2023-11-24T03:39:10.662Z,4.3
2023-11-24T03:40:11.682Z,4.2
2023-11-24T03:41:12.652Z,4.2
2023-11-24T03:42:13.677Z,4.3
2023-11-24T03:43:14.670Z,4.2
2023-11-24T03:44:15.689Z,4.2
2023-11-24T03:45:16.655Z,4.1
2023-11-24T03:46:17.749Z,4.1
2023-11-24T03:47:18.642Z,4.1
2023-11-24T03:48:19.654Z,4.1
2023-11-24T03:49:20.662Z,4.1
2023-11-24T03:50:21.671Z,4.1
2023-11-24T03:51:25.015Z,4.1
2023-11-24T03:52:25.691Z,4.2
2023-11-24T03:53:26.646Z,4.1
2023-11-24T03:54:27.706Z,4.2
2023-11-24T03:55:28.696Z,4.2
2023-11-24T03:56:29.655Z,4.2
2023-11-24T03:57:30.685Z,4.3
2023-11-24T03:58:31.649Z,4.3
2023-11-24T03:59:32.674Z,4.3
2023-11-24T04:00:33.715Z,4.4
2023-11-24T04:01:34.844Z,4.3
2023-11-24T04:02:35.681Z,4.3
2023-11-24T04:03:39.337Z,4.3
2023-11-24T04:04:40.651Z,4.3
2023-11-24T04:05:41.734Z,4.4
2023-11-24T04:06:42.677Z,4.5
2023-11-24T04:07:43.690Z,4.4
2023-11-24T04:08:44.676Z,4.5
2023-11-24T04:09:45.702Z,4.5
2023-11-24T04:10:48.680Z,4.5
2023-11-24T04:11:53.590Z,4.5
2023-11-24T04:12:51.682Z,4.5
2023-11-24T04:13:56.661Z,4.5
2023-11-24T04:14:58.676Z,4.5
2023-11-24T04:16:00.815Z,4.4
2023-11-24T04:17:02.696Z,4.4
2023-11-24T04:18:03.716Z,4.5
2023-11-24T04:19:04.759Z,4.5
2023-11-24T04:20:08.716Z,4.4
2023-11-24T04:21:09.679Z,4.5
2023-11-24T04:22:10.679Z,4.5
2023-11-24T04:23:11.667Z,4.4
2023-11-24T04:24:12.680Z,4.4
2023-11-24T04:25:13.723Z,4.3
2023-11-24T04:26:14.677Z,4.3
2023-11-24T04:27:15.664Z,4.3
2023-11-24T04:28:16.679Z,4.2
2023-11-24T04:29:18.709Z,4.2
2023-11-24T04:30:20.684Z,4.3
2023-11-24T04:31:25.337Z,4.2
2023-11-24T04:32:28.004Z,4.2
2023-11-24T04:33:32.180Z,4.2
2023-11-24T04:34:33.721Z,4.2
2023-11-24T04:35:35.797Z,4.2
2023-11-24T04:36:37.723Z,4.2
2023-11-24T04:37:39.683Z,4.2
2023-11-24T04:38:41.741Z,4.2
2023-11-24T04:39:43.828Z,4.2
2023-11-24T04:40:45.708Z,4.2
2023-11-24T04:41:48.564Z,4.2
2023-11-24T04:42:49.721Z,4.2
2023-11-24T04:43:51.686Z,4.2
2023-11-24T04:44:53.690Z,4.1
2023-11-24T04:45:55.770Z,4
2023-11-24T04:46:57.704Z,4
2023-11-24T04:47:59.740Z,4
2023-11-24T04:49:02.708Z,3.9
2023-11-24T04:50:03.788Z,3.9
2023-11-24T04:51:04.677Z,3.9
2023-11-24T04:52:05.683Z,3.9
2023-11-24T04:53:06.680Z,3.9
2023-11-24T04:54:07.709Z,3.9
2023-11-24T04:55:12.694Z,4
2023-11-24T04:56:14.745Z,3.9
2023-11-24T04:57:15.689Z,3.9
2023-11-24T04:58:16.945Z,4
2023-11-24T04:59:18.701Z,4
2023-11-24T05:00:20.744Z,4
2023-11-24T05:01:22.794Z,4
2023-11-24T05:02:24.806Z,4
2023-11-24T05:03:26.719Z,3.9
2023-11-24T05:04:28.763Z,3.9
2023-11-24T05:05:30.728Z,3.9
2023-11-24T05:06:32.702Z,3.9
2023-11-24T05:07:36.178Z,3.8
2023-11-24T05:08:37.743Z,3.8
2023-11-24T05:09:39.726Z,3.8
2023-11-24T05:10:41.730Z,3.8
2023-11-24T05:11:43.722Z,3.8
2023-11-24T05:12:45.736Z,3.8
2023-11-24T05:13:47.681Z,3.8
2023-11-24T05:14:49.724Z,3.7
2023-11-24T05:15:51.752Z,3.8
2023-11-24T05:16:54.746Z,3.8
2023-11-24T05:17:56.740Z,3.8
2023-11-24T05:18:58.738Z,3.8
2023-11-24T05:20:00.777Z,3.8
2023-11-24T05:21:03.717Z,3.8
2023-11-24T05:22:04.723Z,3.8
2023-11-24T05:23:05.713Z,3.7
2023-11-24T05:24:06.763Z,3.7
2023-11-24T05:25:07.740Z,3.6
2023-11-24T05:26:08.721Z,3.5
2023-11-24T05:27:09.718Z,3.5
2023-11-24T05:28:11.738Z,3.6
2023-11-24T05:29:15.538Z,3.5
2023-11-24T05:30:16.730Z,3.6
2023-11-24T05:31:17.787Z,3.7
2023-11-24T05:32:19.726Z,3.7
2023-11-24T05:33:21.724Z,3.6
2023-11-24T05:34:24.049Z,3.6
2023-11-24T05:35:25.715Z,3.7
2023-11-24T05:36:27.736Z,3.6
2023-11-24T05:37:29.701Z,3.5
2023-11-24T05:38:31.732Z,3.5
2023-11-24T05:39:33.755Z,3.6
2023-11-24T05:40:35.734Z,3.6
2023-11-24T05:41:37.748Z,3.6
2023-11-24T05:42:39.797Z,3.6
2023-11-24T05:43:41.720Z,3.6
2023-11-24T05:44:43.740Z,3.6
2023-11-24T05:45:45.855Z,3.6
2023-11-24T05:46:47.794Z,3.6
2023-11-24T05:47:49.765Z,3.5
2023-11-24T05:48:51.770Z,3.4
2023-11-24T05:49:53.729Z,3.3
2023-11-24T05:50:55.736Z,3.3
2023-11-24T05:51:57.764Z,3.3
2023-11-24T05:53:00.740Z,3.4
2023-11-24T05:54:02.872Z,3.3
2023-11-24T05:55:03.884Z,3.3
2023-11-24T05:56:04.714Z,3.2
2023-11-24T05:57:05.737Z,3.2
2023-11-24T05:58:06.904Z,3.2
2023-11-24T05:59:07.712Z,3.2
2023-11-24T06:00:08.747Z,3.2
2023-11-24T06:01:09.739Z,3.2
2023-11-24T06:02:11.789Z,3.1
2023-11-24T06:03:13.708Z,3.1
2023-11-24T06:04:14.836Z,3.1
2023-11-24T06:05:17.235Z,3
2023-11-24T06:06:18.770Z,3.1
2023-11-24T06:07:20.734Z,3.1
2023-11-24T06:08:22.753Z,3.1
2023-11-24T06:09:24.746Z,3.1
2023-11-24T06:10:26.742Z,3.2
2023-11-24T06:11:28.719Z,3.2
2023-11-24T06:12:30.823Z,3.1
2023-11-24T06:13:32.752Z,3.1
2023-11-24T06:14:34.741Z,3.1
2023-11-24T06:15:36.773Z,3.1
2023-11-24T06:16:38.825Z,3
2023-11-24T06:17:40.764Z,3
2023-11-24T06:18:42.767Z,3
2023-11-24T06:19:44.746Z,3
2023-11-24T06:20:46.738Z,3
2023-11-24T06:21:48.807Z,3
2023-11-24T06:22:51.782Z,2.9
2023-11-24T06:23:53.752Z,3
2023-11-24T06:24:55.810Z,3
2023-11-24T06:25:57.753Z,3.1
2023-11-24T06:26:59.726Z,3.1
2023-11-24T06:28:01.790Z,3.1
2023-11-24T06:29:03.819Z,3.2
2023-11-24T06:30:05.735Z,3.2
2023-11-24T06:31:06.813Z,3.2
2023-11-24T06:32:07.719Z,3.2
2023-11-24T06:33:08.855Z,3.2
2023-11-24T06:34:10.841Z,3.2
2023-11-24T06:35:12.826Z,3.2
2023-11-24T06:36:13.745Z,3.2
2023-11-24T06:37:15.797Z,3.1
2023-11-24T06:38:17.788Z,3.1
2023-11-24T06:39:22.788Z,3.1
2023-11-24T06:40:24.746Z,3.1
2023-11-24T06:41:26.735Z,3.1
2023-11-24T06:42:28.774Z,3.1
2023-11-24T06:43:30.805Z,3.2
2023-11-24T06:44:32.794Z,3.2
2023-11-24T06:45:34.800Z,3.2
2023-11-24T06:46:36.781Z,3.2
2023-11-24T06:47:39.815Z,3.2
2023-11-24T06:48:41.751Z,3.2
2023-11-24T06:49:44.780Z,3.2
2023-11-24T06:50:49.568Z,3.2
2023-11-24T06:51:51.810Z,3.2
2023-11-24T06:52:53.756Z,3.1
2023-11-24T06:53:55.769Z,3.2
2023-11-24T06:54:56.742Z,3.2
2023-11-24T06:55:58.776Z,3.1
2023-11-24T06:57:00.801Z,3
2023-11-24T06:58:02.904Z,3
2023-11-24T06:59:04.760Z,3
2023-11-24T07:00:06.807Z,2.9
2023-11-24T07:01:07.854Z,2.9
2023-11-24T07:02:08.783Z,2.9
2023-11-24T07:03:09.766Z,2.9
2023-11-24T07:04:10.909Z,3
2023-11-24T07:05:11.742Z,3
2023-11-24T07:06:13.788Z,3
2023-11-24T07:07:14.746Z,3
2023-11-24T07:08:16.769Z,3
2023-11-24T07:09:18.790Z,3
2023-11-24T07:10:20.808Z,3
2023-11-24T07:11:22.783Z,3
2023-11-24T07:12:24.783Z,3.1
2023-11-24T07:13:26.832Z,3.1
2023-11-24T07:14:28.758Z,3.1
2023-11-24T07:15:30.825Z,3.1
2023-11-24T07:16:32.835Z,3
2023-11-24T07:17:34.877Z,3.1
2023-11-24T07:18:36.871Z,3.1
2023-11-24T07:19:38.862Z,3.1
2023-11-24T07:20:40.747Z,3.1
2023-11-24T07:21:42.816Z,3.1
2023-11-24T07:22:44.811Z,3
2023-11-24T07:23:46.783Z,3.1
2023-11-24T07:24:48.783Z,3.1
2023-11-24T07:25:50.814Z,3.1
2023-11-24T07:26:52.822Z,3
2023-11-24T07:27:54.840Z,3.1
2023-11-24T07:28:56.785Z,3.1
2023-11-24T07:29:58.802Z,3.1
2023-11-24T07:31:00.884Z,3.1
2023-11-24T07:32:02.830Z,3.1
2023-11-24T07:33:04.826Z,3
2023-11-24T07:34:06.904Z,3
2023-11-24T07:35:07.815Z,2.9
2023-11-24T07:36:08.827Z,2.9
2023-11-24T07:37:09.835Z,2.8
2023-11-24T07:38:10.765Z,2.8
2023-11-24T07:39:11.781Z,2.8
2023-11-24T07:40:12.756Z,2.8
2023-11-24T07:41:13.792Z,2.8
2023-11-24T07:42:15.831Z,2.7
2023-11-24T07:43:17.833Z,2.8
2023-11-24T07:44:19.869Z,2.9
2023-11-24T07:45:21.784Z,3
2023-11-24T07:46:23.892Z,3.1
2023-11-24T07:47:27.715Z,3.3
2023-11-24T07:48:27.829Z,3.5
2023-11-24T07:49:29.807Z,3.6
2023-11-24T07:50:31.840Z,3.8
2023-11-24T07:51:33.816Z,3.9
2023-11-24T07:52:36.242Z,4.1
2023-11-24T07:53:41.048Z,4.3
2023-11-24T07:54:42.883Z,4.5
2023-11-24T07:55:44.814Z,4.6
2023-11-24T07:56:46.795Z,4.4
2023-11-24T07:57:48.858Z,4.3
2023-11-24T07:58:50.833Z,4.3
2023-11-24T07:59:52.829Z,4.2
2023-11-24T08:00:57.826Z,4.1
2023-11-24T08:01:59.908Z,3.9
2023-11-24T08:03:01.795Z,3.5
2023-11-24T08:04:03.978Z,3.4
2023-11-24T08:05:05.808Z,3.2
2023-11-24T08:06:07.829Z,2.9
2023-11-24T08:07:08.853Z,2.8
2023-11-24T08:08:09.792Z,2.8
2023-11-24T08:09:10.844Z,2.8
2023-11-24T08:10:12.832Z,2.9
2023-11-24T08:11:14.805Z,3
2023-11-24T08:12:15.830Z,3.1
2023-11-24T08:13:16.855Z,3.1
2023-11-24T08:14:18.806Z,3.2
2023-11-24T08:15:20.859Z,3.2
2023-11-24T08:16:22.894Z,3.4
2023-11-24T08:17:24.828Z,3.5
2023-11-24T08:18:26.803Z,3.6
2023-11-24T08:19:29.809Z,3.6
2023-11-24T08:20:31.836Z,3.6
2023-11-24T08:21:33.814Z,3.5
2023-11-24T08:22:35.837Z,3.4
2023-11-24T08:23:37.770Z,3.4
2023-11-24T08:24:39.931Z,3.3
2023-11-24T08:25:41.800Z,3.3
2023-11-24T08:26:43.865Z,3.4
2023-11-24T08:27:45.883Z,3.5
2023-11-24T08:28:47.808Z,3.5
2023-11-24T08:29:52.633Z,3.5
2023-11-24T08:30:54.823Z,3.6
2023-11-24T08:31:56.827Z,3.6
2023-11-24T08:32:58.883Z,3.7
2023-11-24T08:34:00.838Z,3.8
2023-11-24T08:35:02.836Z,3.8
2023-11-24T08:36:04.839Z,3.9
2023-11-24T08:37:06.840Z,4
2023-11-24T08:38:08.826Z,4.1
2023-11-24T08:39:10.795Z,4.1
2023-11-24T08:40:11.870Z,4.1
2023-11-24T08:41:20.826Z,4.1
2023-11-24T08:42:15.846Z,4
2023-11-24T08:43:17.886Z,3.9
2023-11-24T08:44:19.830Z,3.8
2023-11-24T08:45:21.829Z,3.7
2023-11-24T08:46:23.924Z,3.7
2023-11-24T08:47:25.880Z,3.8
2023-11-24T08:48:27.866Z,4
2023-11-24T08:49:30.086Z,4.2
2023-11-24T08:50:31.809Z,4.4
2023-11-24T08:51:33.939Z,4.6
2023-11-24T08:52:35.807Z,4.8
2023-11-24T08:53:37.825Z,4.9
2023-11-24T08:54:39.844Z,4.7
2023-11-24T08:55:40.842Z,4.6
2023-11-24T08:56:43.165Z,4.5
2023-11-24T08:57:44.843Z,4.3
2023-11-24T08:58:46.818Z,4.2
2023-11-24T08:59:48.882Z,4.1
2023-11-24T09:00:50.833Z,4
2023-11-24T09:01:52.858Z,4.1
2023-11-24T09:02:54.884Z,4.1
2023-11-24T09:03:56.909Z,4.2
2023-11-24T09:05:01.621Z,4.3
2023-11-24T09:06:03.841Z,4.4
2023-11-24T09:07:05.861Z,4.4
2023-11-24T09:08:07.831Z,4.5
2023-11-24T09:09:08.817Z,4.6
2023-11-24T09:10:10.123Z,4.6
2023-11-24T09:11:13.395Z,4.7
2023-11-24T09:12:13.815Z,4.9
2023-11-24T09:13:14.857Z,5.1
2023-11-24T09:14:15.822Z,5.2
2023-11-24T09:15:16.882Z,5.2
2023-11-24T09:16:19.042Z,5.3
2023-11-24T09:17:20.890Z,5.4
2023-11-24T09:18:22.910Z,5.5
2023-11-24T09:19:24.869Z,5.6
2023-11-24T09:20:26.888Z,5.6
2023-11-24T09:21:28.824Z,5.6
2023-11-24T09:22:30.858Z,5.6
2023-11-24T09:23:32.853Z,5.4
2023-11-24T09:24:34.941Z,5.3
2023-11-24T09:25:36.886Z,5.4
2023-11-24T09:26:38.850Z,5.4
2023-11-24T09:27:40.916Z,5.3
2023-11-24T09:28:42.858Z,5.3
2023-11-24T09:29:44.846Z,5.3
2023-11-24T09:30:46.902Z,5.3
2023-11-24T09:31:48.836Z,5.3
2023-11-24T09:32:50.914Z,5.1
2023-11-24T09:33:52.879Z,5.1
2023-11-24T09:34:54.856Z,5
2023-11-24T09:35:56.854Z,4.9
2023-11-24T09:36:58.838Z,5
2023-11-24T09:38:00.865Z,5.1
2023-11-24T09:39:02.852Z,5.1
2023-11-24T09:40:04.877Z,5.1
2023-11-24T09:41:06.851Z,5
2023-11-24T09:42:08.812Z,5
2023-11-24T09:43:09.857Z,4.9
2023-11-24T09:44:10.843Z,4.9
2023-11-24T09:45:11.867Z,4.7
2023-11-24T09:46:13.953Z,4.6
2023-11-24T09:47:14.837Z,4.5
2023-11-24T09:48:16.914Z,4.5
2023-11-24T09:49:18.837Z,4.5
2023-11-24T09:50:20.903Z,4.5
2023-11-24T09:51:22.887Z,4.6
2023-11-24T09:52:24.857Z,4.7
2023-11-24T09:53:26.868Z,4.6
2023-11-24T09:54:31.881Z,4.5
2023-11-24T09:55:33.836Z,4.5
2023-11-24T09:56:35.876Z,4.6
2023-11-24T09:57:37.880Z,4.5
2023-11-24T09:58:39.840Z,4.5
2023-11-24T09:59:41.855Z,4.5
2023-11-24T10:00:43.869Z,4.5
2023-11-24T10:01:45.834Z,4.6
2023-11-24T10:02:47.942Z,4.6
2023-11-24T10:03:49.968Z,4.6
2023-11-24T10:04:51.867Z,4.5
2023-11-24T10:05:53.910Z,4.5
2023-11-24T10:06:55.878Z,4.4
2023-11-24T10:07:57.849Z,4.4
2023-11-24T10:09:01.550Z,4.4
2023-11-24T10:10:03.998Z,4.5
2023-11-24T10:11:05.856Z,4.5
2023-11-24T10:12:07.853Z,4.5
2023-11-24T10:13:09.857Z,4.5
2023-11-24T10:14:10.841Z,4.6
2023-11-24T10:15:11.835Z,4.6
2023-11-24T10:16:12.914Z,4.6
2023-11-24T10:17:14.978Z,4.6
2023-11-24T10:18:16.897Z,4.7
2023-11-24T10:19:20.867Z,4.7
2023-11-24T10:20:20.870Z,4.8
2023-11-24T10:21:27.491Z,4.9
2023-11-24T10:22:24.180Z,4.8
2023-11-24T10:23:26.900Z,4.8
2023-11-24T10:24:28.840Z,4.7
2023-11-24T10:25:31.333Z,4.6
2023-11-24T10:26:32.902Z,4.5
2023-11-24T10:27:34.872Z,4.6
2023-11-24T10:28:36.895Z,4.6
2023-11-24T10:29:38.865Z,4.7
2023-11-24T10:30:40.937Z,4.7
2023-11-24T10:31:42.905Z,4.7
2023-11-24T10:32:44.912Z,4.6
2023-11-24T10:33:47.002Z,4.6
2023-11-24T10:34:48.991Z,4.7
2023-11-24T10:35:50.876Z,4.6
2023-11-24T10:36:52.926Z,4.6
2023-11-24T10:37:54.874Z,4.6
2023-11-24T10:38:56.900Z,4.6
2023-11-24T10:39:58.886Z,4.7
2023-11-24T10:41:04.000Z,4.7
2023-11-24T10:42:02.874Z,4.7
2023-11-24T10:43:04.912Z,4.8
2023-11-24T10:44:06.864Z,4.9
2023-11-24T10:45:08.881Z,4.9
2023-11-24T10:46:12.351Z,4.9
2023-11-24T10:47:11.898Z,5
2023-11-24T10:48:12.915Z,5.1
2023-11-24T10:49:14.930Z,5.2
2023-11-24T10:50:16.905Z,5.2
2023-11-24T10:51:18.940Z,5.2
2023-11-24T10:52:21.001Z,5.3
2023-11-24T10:53:22.891Z,5.3
2023-11-24T10:54:24.929Z,5.3
2023-11-24T10:55:26.933Z,5.3
2023-11-24T10:56:28.921Z,5.4
2023-11-24T10:57:30.879Z,5.4
2023-11-24T10:58:32.881Z,5.4
2023-11-24T10:59:34.860Z,5.3
2023-11-24T11:00:37.039Z,5.3
2023-11-24T11:01:39.057Z,5.3
2023-11-24T11:02:40.991Z,5.3
2023-11-24T11:03:43.058Z,5.4
2023-11-24T11:04:44.917Z,5.4
2023-11-24T11:05:46.900Z,5.4
2023-11-24T11:06:48.974Z,5.6
2023-11-24T11:07:50.895Z,5.5
2023-11-24T11:08:54.568Z,5.4
2023-11-24T11:09:56.945Z,5.3
2023-11-24T11:10:58.935Z,5.1
2023-11-24T11:12:00.941Z,4.9
2023-11-24T11:13:04.504Z,4.8
2023-11-24T11:14:06.315Z,4.8
2023-11-24T11:15:07.951Z,4.9
2023-11-24T11:16:09.938Z,5
2023-11-24T11:17:13.564Z,5.2
2023-11-24T11:18:15.382Z,5.2
2023-11-24T11:19:15.934Z,5.2
2023-11-24T11:20:17.922Z,5.2
2023-11-24T11:21:19.910Z,5.2
2023-11-24T11:22:21.968Z,5.2
2023-11-24T11:23:23.960Z,5.2
2023-11-24T11:24:25.920Z,5.2
2023-11-24T11:25:27.912Z,5.1
2023-11-24T11:26:29.957Z,5.1
2023-11-24T11:27:31.938Z,5.1
2023-11-24T11:28:34.920Z,5.1
2023-11-24T11:29:36.917Z,5.2
2023-11-24T11:30:41.648Z,5.2
2023-11-24T11:31:44.011Z,5.3
2023-11-24T11:32:47.459Z,5.2
2023-11-24T11:33:51.034Z,5
2023-11-24T11:34:52.881Z,4.9
2023-11-24T11:35:54.952Z,4.6
2023-11-24T11:36:57.945Z,4.2
2023-11-24T11:38:00.939Z,4
2023-11-24T11:39:02.962Z,3.7
2023-11-24T11:40:05.032Z,3.5
2023-11-24T11:41:06.996Z,3.4
2023-11-24T11:42:08.973Z,3.3
2023-11-24T11:43:10.996Z,3.3
2023-11-24T11:44:11.993Z,3.3
2023-11-24T11:45:12.888Z,3.2
2023-11-24T11:46:14.958Z,3.3
2023-11-24T11:47:17.924Z,3.3
2023-11-24T11:48:20.940Z,3.3
2023-11-24T11:49:23.018Z,3.3
2023-11-24T11:50:24.905Z,3.4
2023-11-24T11:51:26.945Z,3.3
2023-11-24T11:52:29.025Z,3.4
2023-11-24T11:53:30.986Z,3.4
2023-11-24T11:54:32.965Z,3.4
2023-11-24T11:55:34.977Z,3.5
2023-11-24T11:56:36.893Z,3.5
2023-11-24T11:57:38.904Z,3.5
2023-11-24T11:58:40.891Z,3.5
2023-11-24T11:59:42.931Z,3.5
2023-11-24T12:00:44.978Z,3.6
2023-11-24T12:01:47.016Z,3.6
2023-11-24T12:02:48.968Z,3.7
2023-11-24T12:03:51.378Z,3.8
2023-11-24T12:04:53.923Z,3.9
2023-11-24T12:05:55.910Z,3.9
2023-11-24T12:06:58.036Z,3.9
2023-11-24T12:07:59.939Z,4
2023-11-24T12:09:01.973Z,4
2023-11-24T12:10:04.005Z,4
2023-11-24T12:11:05.996Z,4
2023-11-24T12:12:07.912Z,4
2023-11-24T12:13:09.973Z,4.1
2023-11-24T12:14:10.883Z,4.1
2023-11-24T12:15:12.144Z,4.2
2023-11-24T12:16:12.941Z,4.3
2023-11-24T12:17:14.974Z,4.6
2023-11-24T12:18:17.054Z,4.9
2023-11-24T12:19:19.001Z,5.2
2023-11-24T12:20:21.954Z,5.3
2023-11-24T12:21:24.039Z,5.3
2023-11-24T12:22:25.926Z,5.4
2023-11-24T12:23:27.927Z,5.5
2023-11-24T12:24:29.911Z,5.6
2023-11-24T12:25:31.968Z,5.6
2023-11-24T12:26:33.929Z,5.6
2023-11-24T12:27:35.949Z,5.7
2023-11-24T12:28:37.966Z,5.7
2023-11-24T12:29:39.941Z,5.7
2023-11-24T12:30:42.040Z,5.9
2023-11-24T12:31:44.085Z,6
2023-11-24T12:32:46.125Z,6
2023-11-24T12:33:47.934Z,5.8
2023-11-24T12:34:49.953Z,5.8
2023-11-24T12:35:52.007Z,5.7
2023-11-24T12:36:54.008Z,5.5
2023-11-24T12:37:55.929Z,5.4
2023-11-24T12:38:57.935Z,5.3
2023-11-24T12:40:00.024Z,5.2
2023-11-24T12:41:02.002Z,5
2023-11-24T12:42:04.117Z,4.9
2023-11-24T12:43:06.008Z,4.7
2023-11-24T12:44:08.418Z,4.5
2023-11-24T12:45:10.292Z,4.3
2023-11-24T12:46:14.888Z,4.3
2023-11-24T12:47:16.002Z,4.2
2023-11-24T12:48:18.023Z,4.3
2023-11-24T12:49:20.058Z,4.2
2023-11-24T12:50:22.000Z,4.2
2023-11-24T12:51:24.010Z,4.2
2023-11-24T12:52:26.004Z,4.2
2023-11-24T12:53:30.748Z,4.2
2023-11-24T12:54:32.909Z,4.2
2023-11-24T12:55:36.940Z,4.1
2023-11-24T12:56:38.188Z,3.9
2023-11-24T12:57:40.040Z,3.5
2023-11-24T12:58:41.959Z,3.4
2023-11-24T12:59:47.188Z,3.5
2023-11-24T13:00:48.978Z,3.4
2023-11-24T13:01:50.977Z,3.2
2023-11-24T13:02:53.017Z,3.1
2023-11-24T13:03:55.439Z,2.9
2023-11-24T13:04:57.064Z,2.8
2023-11-24T13:05:59.961Z,2.9
2023-11-24T13:07:03.293Z,2.8
2023-11-24T13:08:04.048Z,2.7
2023-11-24T13:09:06.003Z,2.7
2023-11-24T13:10:08.067Z,2.7
2023-11-24T13:11:09.971Z,2.7
2023-11-24T13:12:16.374Z,2.8
2023-11-24T13:13:12.994Z,2.8
2023-11-24T13:14:13.917Z,2.9
2023-11-24T13:15:16.223Z,2.8
2023-11-24T13:16:18.014Z,2.9
2023-11-24T13:17:22.923Z,2.9
2023-11-24T13:18:25.031Z,3
2023-11-24T13:19:27.035Z,3
2023-11-24T13:20:28.998Z,3
2023-11-24T13:21:30.950Z,2.9
2023-11-24T13:22:33.011Z,2.8
2023-11-24T13:23:34.977Z,2.6
2023-11-24T13:24:37.011Z,2.5
2023-11-24T13:25:38.977Z,2.4
2023-11-24T13:26:41.984Z,2.3
2023-11-24T13:27:44.162Z,2.2
2023-11-24T13:28:49.017Z,2.2
2023-11-24T13:29:51.008Z,2.3
2023-11-24T13:30:53.088Z,2.3
2023-11-24T13:31:54.066Z,2.4
2023-11-24T13:32:56.044Z,2.4
2023-11-24T13:33:58.075Z,2.5
2023-11-24T13:35:00.048Z,2.6
2023-11-24T13:36:02.004Z,2.6
2023-11-24T13:37:04.053Z,2.7
2023-11-24T13:38:05.993Z,2.8
2023-11-24T13:39:08.012Z,2.7
2023-11-24T13:40:10.029Z,2.5
2023-11-24T13:41:14.748Z,2.4
2023-11-24T13:42:15.994Z,2.1
2023-11-24T13:43:18.040Z,2.2
2023-11-24T13:44:19.968Z,2.2
2023-11-24T13:45:21.004Z,2.3
2023-11-24T13:46:23.052Z,2.5
2023-11-24T13:47:25.038Z,2.5
2023-11-24T13:48:26.986Z,2.4
2023-11-24T13:49:28.987Z,2.3
2023-11-24T13:50:31.021Z,2.3
2023-11-24T13:51:32.947Z,2.3
2023-11-24T13:52:35.104Z,2.3
2023-11-24T13:53:37.036Z,2.4
2023-11-24T13:54:39.077Z,2.4
2023-11-24T13:55:40.989Z,2.3
2023-11-24T13:56:43.026Z,2.2
2023-11-24T13:57:44.956Z,2
2023-11-24T13:58:45.033Z,2.1
2023-11-24T13:59:45.999Z,2.2
2023-11-24T14:00:46.964Z,2.2
2023-11-24T14:01:48.201Z,2.1
2023-11-24T14:02:49.045Z,2.2
2023-11-24T14:03:50.055Z,2.2
2023-11-24T14:04:50.997Z,2.3
2023-11-24T14:05:51.951Z,2.3
2023-11-24T14:06:53.130Z,2.5
2023-11-24T14:07:53.956Z,2.5
2023-11-24T14:08:54.965Z,2.5
2023-11-24T14:09:55.994Z,2.7
2023-11-24T14:10:56.955Z,2.8
2023-11-24T14:11:57.960Z,2.9
2023-11-24T14:13:00.003Z,3
2023-11-24T14:14:02.052Z,3
2023-11-24T14:15:04.072Z,3.2
2023-11-24T14:16:06.293Z,3.2
2023-11-24T14:17:09.011Z,3.2
2023-11-24T14:18:09.964Z,3.1